Latest Weather Observations for Yarram Airport

IDV60801

Issued at 12:02 pm EDT Sunday 7 February 2016 (issued every 30 minutes, with the page automatically refreshed every 10 minutes)

About weather observations | Map of weather stations | Latest weather observations for VIC | Other Formats
Station Details ID: 085151 Name: YARRAM AIRPORT Lat: -38.56 Lon: 146.75 Height: 17.9 m
Data from the previous 72 hours. | See also: Recent months at Yarram Airport
Date/Time
EDT
Temp
°C
App
Temp
°C
Dew
Point
Rel
Hum
%
Delta-T
°C
Wind Press
QNH
hPa
Press
MSL
hPa
Rain
since 9 am
mm
Dir
 
Spd
km/h
Gust
km/h
Spd
kts
Gust
kts
07/12:00pm 26.1 26.6 17.5 59 5.4 SSE 11 19 6 10 1016.7 1016.7 0.0
07/11:30am 25.4 25.4 16.3 57 5.6 S 11 17 6 9 1016.8 1016.8 0.0
07/11:00am 24.6 25.4 17.3 64 4.5 SSE 9 15 5 8 1016.8 1016.8 0.0
07/10:30am 23.5 24.2 16.1 63 4.5 SSE 7 11 4 6 1016.9 1016.9 0.0
07/10:00am 22.6 24.0 16.4 68 3.8 E 4 7 2 4 1016.8 1016.8 0.0
07/09:30am 20.7 22.1 16.5 77 2.5 WSW 4 7 2 4 1016.8 1016.8 0.0
07/09:00am 18.7 19.6 16.1 85 1.5 WNW 6 9 3 5 1016.9 1016.9 0.0
07/08:30am 17.1 17.2 15.4 90 1.0 W 9 11 5 6 1016.7 1016.7 0.0
07/08:00am 14.9 16.3 14.3 96 0.3 CALM 0 0 0 0 1016.4 1016.4 0.0
07/07:30am 13.0 13.8 12.4 96 0.3 CALM 0 0 0 0 1016.2 1016.2 0.0
07/07:00am 11.1 11.3 10.5 96 0.3 CALM 0 0 0 0 1015.9 1015.9 0.0
07/06:30am 11.3 11.5 10.7 96 0.3 CALM 0 0 0 0 1015.7 1015.7 0.0
07/06:00am 11.1 11.2 10.3 95 0.4 CALM 0 0 0 0 1015.4 1015.4 0.0
07/05:30am 11.5 11.7 10.7 95 0.4 CALM 0 0 0 0 1015.2 1015.2 0.0
07/05:00am 11.8 12.1 11.0 95 0.4 CALM 0 0 0 0 1015.2 1015.2 0.0
07/04:30am 11.6 11.9 10.8 95 0.4 CALM 0 0 0 0 1015.3 1015.3 0.0
07/04:00am 12.2 12.6 11.3 94 0.5 CALM 0 0 0 0 1015.4 1015.4 0.0
07/03:30am 12.9 13.5 12.0 94 0.5 CALM 0 0 0 0 1015.5 1015.5 0.0
07/03:00am 12.9 13.1 11.8 93 0.6 N 2 6 1 3 1015.6 1015.6 0.0
07/02:30am 14.6 14.4 13.6 94 0.6 NE 7 9 4 5 1015.7 1015.7 0.0
07/02:00am 14.7 14.7 13.7 94 0.6 NE 6 7 3 4 1015.9 1015.9 0.0
07/01:30am 15.2 15.2 14.2 94 0.6 NE 7 9 4 5 1016.2 1016.2 0.0
07/01:00am 15.4 15.1 14.4 94 0.6 NE 9 13 5 7 1016.3 1016.3 0.0
07/12:30am 14.2 13.8 12.9 92 0.7 NE 7 9 4 5 1016.7 1016.7 0.0
07/12:00am 16.1 15.9 14.8 92 0.7 NE 9 11 5 6 1016.9 1016.9 0.0
 
Date/Time
EDT
Temp
°C
App
Temp
°C
Dew
Point
Rel
Hum
%
Delta-T
°C
Wind Press
QNH
hPa
Press
MSL
hPa
Rain
since 9 am
mm
Dir
 
Spd
km/h
Gust
km/h
Spd
kts
Gust
kts
06/11:30pm 16.5 16.6 15.4 93 0.6 NE 9 11 5 6 1017.2 1017.2 0.0
06/11:00pm 16.5 16.8 15.0 91 0.9 NE 7 7 4 4 1017.5 1017.5 0.0
06/10:30pm 16.7 16.7 15.1 90 0.9 NE 9 9 5 5 1017.6 1017.6 0.0
06/10:00pm 17.0 17.2 14.6 86 1.4 NE 7 11 4 6 1017.4 1017.4 0.0
06/09:30pm 18.3 18.5 15.7 85 1.5 NE 9 13 5 7 1017.2 1017.2 0.0
06/09:00pm 19.2 19.1 16.1 82 1.8 ENE 11 15 6 8 1017.2 1017.2 0.0
06/08:30pm 19.9 19.1 16.0 78 2.3 ENE 15 24 8 13 1017.0 1017.0 0.0
06/08:00pm 20.7 19.4 15.9 74 2.9 ENE 17 26 9 14 1016.8 1016.8 0.0
06/07:30pm 21.5 19.7 16.0 71 3.3 ENE 20 33 11 18 1016.5 1016.5 0.0
06/07:00pm 22.1 19.4 15.7 67 3.8 ENE 24 33 13 18 1016.4 1016.4 0.0
06/06:30pm 22.8 19.6 15.4 63 4.4 E 26 35 14 19 1016.2 1016.2 0.0
06/06:00pm 23.3 19.8 14.6 58 5.1 ENE 26 39 14 21 1016.1 1016.1 0.0
06/05:30pm 23.9 20.6 14.0 54 5.8 ENE 24 37 13 20 1016.1 1016.1 0.0
06/05:00pm 24.2 21.2 14.9 56 5.5 ENE 24 37 13 20 1016.2 1016.2 0.0
06/04:30pm 24.1 20.3 14.8 56 5.5 E 28 39 15 21 1016.2 1016.2 0.0
06/04:00pm 24.8 20.9 14.3 52 6.2 E 28 43 15 23 1016.3 1016.3 0.0
06/03:30pm 25.2 22.0 15.2 54 6.0 E 26 37 14 20 1016.7 1016.7 0.0
06/03:00pm 25.6 22.9 15.6 54 6.1 ENE 24 35 13 19 1017.1 1017.1 0.0
06/02:30pm 24.8 21.4 15.7 57 5.5 ENE 28 41 15 22 1017.3 1017.3 0.0
06/02:00pm 25.2 22.2 15.8 56 5.7 E 26 35 14 19 1017.5 1017.5 0.0
06/01:30pm 25.0 21.5 14.5 52 6.2 E 26 35 14 19 1017.6 1017.6 0.0
06/01:00pm 24.9 21.9 14.7 53 6.1 E 24 33 13 18 1017.8 1017.8 0.0
06/12:30pm 24.9 21.8 14.4 52 6.2 ENE 24 41 13 22 1018.0 1018.0 0.0
06/12:00pm 24.9 22.2 14.7 53 6.1 E 22 35 12 19 1018.3 1018.3 0.0
06/11:30am 24.8 22.3 14.0 51 6.4 ENE 20 30 11 16 1018.4 1018.4 0.0
06/11:00am 24.1 21.6 14.2 54 5.8 ENE 20 32 11 17 1018.5 1018.5 0.0
06/10:30am 23.4 21.1 14.1 56 5.5 ENE 19 30 10 16 1018.5 1018.5 0.0
06/10:00am 22.3 20.0 14.2 60 4.7 ENE 19 26 10 14 1018.7 1018.7 0.0
06/09:30am 21.2 19.1 15.1 68 3.6 ENE 20 30 11 16 1018.8 1018.8 0.0
06/09:00am 20.4 17.9 15.2 72 3.1 NE 22 32 12 17 1018.9 1018.9 0.0
06/08:30am 18.7 17.3 15.6 82 1.8 NE 17 24 9 13 1019.0 1019.0 0.0
06/08:00am 16.9 17.1 15.8 93 0.6 NNE 9 13 5 7 1019.0 1019.0 0.0
06/07:30am 15.3 15.0 14.5 95 0.5 NNE 9 11 5 6 1018.7 1018.7 0.0
06/07:00am 13.5 12.3 12.7 95 0.4 NE 11 13 6 7 1018.5 1018.5 0.0
06/06:30am 12.5 11.3 11.6 94 0.5 NNE 9 11 5 6 1018.4 1018.4 0.0
06/06:00am 13.2 12.1 12.1 93 0.6 NE 9 11 5 6 1018.4 1018.4 0.0
06/05:30am 13.6 12.7 12.5 93 0.6 NE 9 11 5 6 1018.3 1018.3 0.0
06/05:00am 13.3 12.6 12.0 92 0.7 NE 7 11 4 6 1018.3 1018.3 0.0
06/04:30am 13.3 12.2 12.0 92 0.7 NE 9 11 5 6 1018.6 1018.6 0.0
06/04:00am 13.4 12.3 12.0 91 0.7 NE 9 11 5 6 1018.8 1018.8 0.0
06/03:30am 13.9 12.5 12.3 90 0.9 NNE 11 11 6 6 1019.0 1019.0 0.0
06/03:00am 15.6 14.6 13.3 86 1.3 NE 11 13 6 7 1019.3 1019.3 0.0
06/02:30am 15.9 15.3 13.4 85 1.4 NE 9 13 5 7 1019.7 1019.7 0.0
06/02:00am 16.3 15.0 13.6 84 1.5 NE 13 17 7 9 1019.9 1019.9 0.0
06/01:30am 16.7 15.4 13.8 83 1.6 NE 13 17 7 9 1020.1 1020.1 0.0
06/01:00am 16.8 15.4 13.5 81 1.9 NE 13 17 7 9 1020.5 1020.5 0.0
06/12:30am 17.4 16.1 13.7 79 2.1 NE 13 20 7 11 1020.8 1020.8 0.0
06/12:00am 17.8 15.8 13.9 78 2.2 ENE 17 22 9 12 1020.9 1020.9 0.0
 
Date/Time
EDT
Temp
°C
App
Temp
°C
Dew
Point
Rel
Hum
%
Delta-T
°C
Wind Press
QNH
hPa
Press
MSL
hPa
Rain
since 9 am
mm
Dir
 
Spd
km/h
Gust
km/h
Spd
kts
Gust
kts
05/11:30pm 17.8 15.8 13.9 78 2.2 ENE 17 24 9 13 1020.9 1020.9 0.0
05/11:00pm 17.9 16.4 14.2 79 2.1 ENE 15 20 8 11 1021.1 1021.1 0.0
05/10:30pm 18.0 16.4 13.9 77 2.3 ENE 15 22 8 12 1021.3 1021.3 0.0
05/10:00pm 17.9 16.2 13.6 76 2.4 ENE 15 20 8 11 1021.3 1021.3 0.0
05/09:30pm 18.2 16.5 13.7 75 2.6 ENE 15 26 8 14 1021.1 1021.1 0.0
05/09:00pm 18.7 16.7 14.0 74 2.7 ENE 17 22 9 12 1021.0 1021.0 0.0
05/08:30pm 19.1 17.0 13.7 71 3.1 ENE 17 30 9 16 1020.6 1020.6 0.0
05/08:00pm 19.7 16.5 13.2 66 3.7 ENE 22 35 12 19 1020.2 1020.2 0.0
05/07:30pm 20.5 16.7 12.5 60 4.5 ENE 24 37 13 20 1020.1 1020.1 0.0
05/07:00pm 21.2 17.1 11.5 54 5.4 ENE 24 39 13 21 1019.6 1019.6 0.0
05/06:30pm 21.6 16.4 11.6 53 5.6 ENE 30 43 16 23 1019.5 1019.5 0.0
05/06:00pm 22.2 17.5 11.9 52 5.8 E 28 39 15 21 1019.6 1019.6 0.0
05/05:30pm 22.1 17.2 12.4 54 5.5 E 30 43 16 23 1019.7 1019.7 0.0
05/05:00pm 22.5 17.6 11.3 49 6.2 ENE 28 39 15 21 1019.8 1019.8 0.0
05/04:30pm 22.9 18.0 11.3 48 6.5 E 28 43 15 23 1020.1 1020.1 0.0
05/04:00pm 22.6 17.7 11.4 49 6.2 ENE 28 44 15 24 1020.4 1020.4 0.0
05/03:30pm 22.9 18.2 11.9 50 6.2 ENE 28 41 15 22 1020.6 1020.6 0.0
05/03:00pm 23.2 18.0 11.6 48 6.5 E 30 44 16 24 1020.8 1020.8 0.0
05/02:30pm 22.8 17.5 11.2 48 6.5 E 30 41 16 22 1021.0 1021.0 0.0
05/02:00pm 23.2 19.0 12.5 51 6.1 ENE 26 39 14 21 1021.2 1021.2 0.0
05/01:30pm 22.9 18.7 13.4 55 5.5 ENE 28 41 15 22 1021.3 1021.3 0.0
05/01:00pm 22.0 17.8 13.4 58 4.9 ENE 28 43 15 23 1021.6 1021.6 0.0
05/12:30pm 23.1 18.5 12.4 51 6.1 ENE 28 41 15 22 1021.7 1021.7 0.0
05/12:00pm 22.6 18.6 13.1 55 5.4 E 26 37 14 20 1021.9 1021.9 0.0
05/11:30am 21.5 17.5 11.8 54 5.4 E 24 37 13 20 1022.1 1022.1 0.0
05/11:00am 21.7 18.8 12.8 57 5.1 ENE 20 30 11 16 1022.4 1022.4 0.0
05/10:30am 22.1 19.8 14.2 61 4.6 ENE 19 30 10 16 1022.3 1022.3 0.0
05/10:00am 20.3 17.5 13.3 64 4.0 ENE 20 30 11 16 1022.2 1022.2 0.0
05/09:30am 20.7 18.2 14.1 66 3.8 ENE 20 26 11 14 1022.1 1022.1 0.0
05/09:00am 19.4 18.3 14.2 72 3.0 NE 13 19 7 10 1022.1 1022.1 0.0
05/08:30am 19.0 18.7 14.5 75 2.6 NE 9 13 5 7 1021.8 1021.8 0.0
05/08:00am 17.3 16.4 14.9 86 1.4 NNE 13 17 7 9 1021.7 1021.7 0.0
05/07:30am 16.1 15.8 14.5 90 0.9 NE 9 11 5 6 1021.5 1021.5 0.0
05/07:00am 15.2 14.6 13.6 90 0.9 NNE 9 13 5 7 1021.1 1021.1 0.0
05/06:30am 14.9 14.6 13.3 90 0.9 NE 7 11 4 6 1020.9 1020.9 0.0
05/06:00am 14.8 14.1 13.3 91 0.8 NE 9 13 5 7 1020.5 1020.5 0.0
05/05:30am 14.5 13.8 13.2 92 0.7 NE 9 11 5 6 1020.2 1020.2 0.0
05/05:00am 14.4 13.7 13.1 92 0.7 NE 9 13 5 7 1020.1 1020.1 0.0
05/04:30am 14.0 13.2 12.9 93 0.6 NE 9 11 5 6 1020.1 1020.1 0.0
05/04:00am 13.4 12.7 12.1 92 0.7 NE 7 9 4 5 1019.9 1019.9 0.0
05/03:30am 13.3 12.6 11.9 91 0.7 NE 7 7 4 4 1020.1 1020.1 0.0
05/03:00am 14.3 13.9 12.9 91 0.8 NE 7 9 4 5 1020.1 1020.1 0.0
05/02:30am 14.5 13.4 13.0 91 0.8 NE 11 13 6 7 1020.0 1020.0 0.0
05/02:00am 13.6 12.6 12.2 91 0.8 NNE 9 11 5 6 1020.2 1020.2 0.0
05/01:30am 14.2 13.2 12.2 88 1.1 NE 9 9 5 5 1020.2 1020.2 0.0
05/01:00am 15.0 14.3 13.2 89 1.0 NE 9 11 5 6 1020.4 1020.4 0.0
05/12:30am 14.4 13.1 12.6 89 1.0 NNE 11 13 6 7 1020.4 1020.4 0.0
05/12:00am 15.4 14.7 13.1 86 1.3 NE 9 11 5 6 1020.3 1020.3 0.0
 
Date/Time
EDT
Temp
°C
App
Temp
°C
Dew
Point
Rel
Hum
%
Delta-T
°C
Wind Press
QNH
hPa
Press
MSL
hPa
Rain
since 9 am
mm
Dir
 
Spd
km/h
Gust
km/h
Spd
kts
Gust
kts
04/11:30pm 16.1 15.5 13.6 85 1.4 NE 9 11 5 6 1020.4 1020.4 0.0
04/11:00pm 16.7 16.5 13.6 82 1.7 NE 7 11 4 6 1020.6 1020.6 0.0
04/10:30pm 17.3 16.8 13.8 80 2.0 NE 9 13 5 7 1020.5 1020.5 0.0
04/10:00pm 18.1 17.3 14.0 77 2.3 NE 11 13 6 7 1020.4 1020.4 0.0
04/09:30pm 18.6 17.9 14.3 76 2.5 ENE 11 17 6 9 1020.2 1020.2 0.0
04/09:00pm 18.9 17.8 14.4 75 2.6 ENE 13 17 7 9 1019.9 1019.9 0.0
04/08:30pm 19.2 17.8 14.5 74 2.7 ENE 15 20 8 11 1019.7 1019.7 0.0
04/08:00pm 19.8 18.4 14.4 71 3.1 ENE 15 22 8 12 1019.4 1019.4 0.0
04/07:30pm 20.4 18.1 14.1 67 3.6 ENE 19 28 10 15 1019.0 1019.0 0.0
04/07:00pm 21.2 19.1 14.6 66 3.9 E 19 26 10 14 1018.6 1018.6 0.0
04/06:30pm 21.5 19.1 14.4 64 4.2 E 20 30 11 16 1018.2 1018.2 0.0
04/06:00pm 22.4 20.2 15.0 63 4.4 E 20 28 11 15 1018.1 1018.1 0.0
04/05:30pm 21.8 19.7 15.2 66 3.9 E 20 32 11 17 1018.1 1018.1 0.0
04/05:00pm 21.9 19.2 15.5 67 3.8 ESE 24 32 13 17 1018.2 1018.2 0.0
04/04:30pm 23.7 22.3 15.5 60 4.9 E 17 24 9 13 1018.1 1018.1 0.0
04/04:00pm 22.6 21.0 15.0 62 4.5 E 17 26 9 14 1018.3 1018.3 0.0
04/03:30pm 24.0 22.2 15.5 59 5.1 SE 19 26 10 14 1018.4 1018.4 0.0
04/03:00pm 24.3 22.7 16.0 60 5.0 SSE 19 24 10 13 1018.3 1018.3 0.0
04/02:30pm 22.7 21.8 15.8 65 4.2 SSE 15 20 8 11 1018.5 1018.5 0.0
04/02:00pm 22.3 20.2 14.7 62 4.5 ESE 19 26 10 14 1018.4 1018.4 0.0
04/01:30pm 23.2 22.9 14.5 58 5.1 SE 9 13 5 7 1018.6 1018.6 0.0
04/01:00pm 23.1 22.7 14.1 57 5.3 WNW 9 15 5 8 1018.6 1018.6 0.0
04/12:30pm 22.6 23.2 14.2 59 4.9 SE 4 9 2 5 1018.7 1018.7 0.0

Other Formats:

Comma delimited format used in spreadsheet applications
http://www.bom.gov.au/fwo/IDV60801/IDV60801.95890.axf

JavaScript Object Notation format (JSON) in row-major order
http://www.bom.gov.au/fwo/IDV60801/IDV60801.95890.json